createdAt,value
2023-05-17T00:00:24.027Z,3.17
2023-05-17T00:02:52.760Z,4.03
2023-05-17T00:05:21.389Z,5.05
2023-05-17T00:07:52.099Z,5.50
2023-05-17T00:10:22.272Z,5.22
2023-05-17T00:12:50.877Z,5.88
2023-05-17T00:15:19.627Z,2.25
2023-05-17T00:17:48.243Z,5.43
2023-05-17T00:20:16.952Z,2.80
2023-05-17T00:22:47.305Z,5.30
2023-05-17T00:25:15.931Z,8.05
2023-05-17T00:27:45.885Z,2.92
2023-05-17T00:30:14.777Z,4.00
2023-05-17T00:32:44.655Z,3.22
2023-05-17T00:35:13.403Z,7.78
2023-05-17T00:37:43.407Z,4.07
2023-05-17T00:40:13.948Z,6.07
2023-05-17T00:42:42.704Z,6.78
2023-05-17T00:45:13.010Z,3.22
2023-05-17T00:47:42.750Z,5.25
2023-05-17T00:50:12.936Z,4.38
2023-05-17T00:52:41.708Z,6.65
2023-05-17T00:55:10.660Z,4.10
2023-05-17T00:57:39.959Z,6.28
2023-05-17T01:00:09.768Z,5.68
2023-05-17T01:02:39.768Z,6.22
2023-05-17T01:05:10.156Z,3.80
2023-05-17T01:07:38.740Z,10.30
2023-05-17T01:10:08.689Z,8.18
2023-05-17T01:12:51.292Z,5.65
2023-05-17T01:15:26.542Z,8.00
2023-05-17T01:18:08.666Z,3.72
2023-05-17T01:20:39.529Z,6.90
2023-05-17T01:23:25.747Z,3.75
2023-05-17T01:26:00.835Z,6.28
2023-05-17T01:28:32.745Z,6.10
2023-05-17T01:31:04.993Z,5.03
2023-05-17T01:33:34.844Z,3.85
2023-05-17T01:36:03.554Z,9.43
2023-05-17T01:38:32.127Z,4.78
2023-05-17T01:41:14.930Z,5.38
2023-05-17T01:43:49.031Z,4.82
2023-05-17T01:46:25.937Z,3.97
2023-05-17T01:49:07.295Z,7.53
2023-05-17T01:51:47.181Z,8.55
2023-05-17T01:54:21.583Z,9.20
2023-05-17T01:56:56.769Z,4.38
2023-05-17T01:59:27.818Z,5.25
2023-05-17T02:02:03.931Z,3.63
2023-05-17T02:04:32.765Z,4.25
2023-05-17T02:07:03.927Z,4.97
2023-05-17T02:09:32.981Z,7.55
2023-05-17T02:12:01.590Z,9.30
2023-05-17T02:14:31.505Z,6.18
2023-05-17T02:17:00.721Z,7.97
2023-05-17T02:19:29.555Z,5.05
2023-05-17T02:21:58.257Z,5.72
2023-05-17T02:24:27.033Z,7.82
2023-05-17T02:26:55.914Z,5.63
2023-05-17T02:29:24.587Z,5.35
2023-05-17T02:31:55.576Z,6.10
2023-05-17T02:34:24.323Z,7.40
2023-05-17T02:36:53.083Z,6.13
2023-05-17T02:39:21.690Z,4.45
2023-05-17T02:41:50.278Z,7.20
2023-05-17T02:44:18.826Z,5.55
2023-05-17T02:46:47.451Z,6.57
2023-05-17T02:49:17.497Z,6.35
2023-05-17T02:51:46.284Z,5.97
2023-05-17T02:54:14.894Z,5.35
2023-05-17T02:56:43.922Z,8.45
2023-05-17T02:59:12.713Z,7.80
2023-05-17T03:01:43.695Z,8.60
2023-05-17T03:04:12.534Z,5.88
2023-05-17T03:06:43.712Z,5.60
2023-05-17T03:09:12.397Z,5.07
2023-05-17T03:11:41.526Z,7.10
2023-05-17T03:14:17.392Z,5.57
2023-05-17T03:16:45.939Z,5.75
2023-05-17T03:19:15.614Z,6.53
2023-05-17T03:21:46.916Z,10.38
2023-05-17T03:24:15.871Z,8.10
2023-05-17T03:26:44.672Z,5.93
2023-05-17T03:29:14.338Z,5.78
2023-05-17T03:31:45.333Z,12.40
2023-05-17T03:34:15.242Z,7.05
2023-05-17T03:36:45.944Z,5.45
2023-05-17T03:39:14.759Z,8.05
2023-05-17T03:41:44.337Z,10.10
2023-05-17T03:44:12.978Z,9.65
2023-05-17T03:46:41.672Z,6.53
2023-05-17T03:49:11.417Z,7.13
2023-05-17T03:51:40.788Z,13.65
2023-05-17T03:54:11.198Z,9.73
2023-05-17T03:56:39.882Z,8.07
2023-05-17T03:59:08.574Z,11.98
2023-05-17T04:01:37.697Z,8.18
2023-05-17T04:04:06.933Z,8.48
2023-05-17T04:06:35.735Z,10.38
2023-05-17T04:09:05.425Z,6.10
2023-05-17T04:11:35.373Z,7.70
2023-05-17T04:14:04.113Z,8.68
2023-05-17T04:16:32.853Z,6.13
2023-05-17T04:19:02.033Z,8.77
2023-05-17T04:21:32.218Z,9.27
2023-05-17T04:24:00.926Z,8.95
2023-05-17T04:26:30.687Z,7.97
2023-05-17T04:29:01.396Z,9.88
2023-05-17T04:31:30.147Z,13.82
2023-05-17T04:33:58.853Z,12.63
2023-05-17T04:36:27.784Z,8.40
2023-05-17T04:38:57.308Z,11.18
2023-05-17T04:41:29.393Z,12.07
2023-05-17T04:43:58.564Z,10.10
2023-05-17T04:46:34.415Z,10.30
2023-05-17T04:49:03.963Z,10.98
2023-05-17T04:51:33.182Z,11.25
2023-05-17T04:54:03.239Z,9.40
2023-05-17T04:56:33.252Z,10.73
2023-05-17T04:59:02.654Z,14.57
2023-05-17T05:01:31.918Z,11.38
2023-05-17T05:04:06.801Z,13.52
2023-05-17T05:06:40.824Z,16.48
2023-05-17T05:09:10.046Z,13.18
2023-05-17T05:11:40.474Z,9.82
2023-05-17T05:14:09.297Z,12.77
2023-05-17T05:16:38.086Z,18.38
2023-05-17T05:19:09.439Z,11.55
2023-05-17T05:21:38.829Z,11.10
2023-05-17T05:24:08.863Z,10.48
2023-05-17T05:26:37.448Z,11.45
2023-05-17T05:29:07.101Z,14.57
2023-05-17T05:31:35.872Z,16.48
2023-05-17T05:34:07.533Z,13.18
2023-05-17T05:36:36.224Z,11.48
2023-05-17T05:39:06.360Z,16.63
2023-05-17T05:41:36.648Z,14.88
2023-05-17T05:44:05.653Z,11.73
2023-05-17T05:46:34.378Z,15.43
2023-05-17T05:49:05.431Z,17.55
2023-05-17T05:51:36.610Z,13.35
2023-05-17T05:54:05.312Z,16.15
2023-05-17T05:56:33.861Z,17.92
2023-05-17T05:59:02.446Z,18.05
2023-05-17T06:01:31.442Z,16.23
2023-05-17T06:04:00.027Z,15.80
2023-05-17T06:06:28.684Z,11.57
2023-05-17T06:08:59.785Z,17.05
2023-05-17T06:11:28.612Z,19.17
2023-05-17T06:13:57.197Z,14.32
2023-05-17T06:16:25.933Z,16.23
2023-05-17T06:18:54.626Z,13.80
2023-05-17T06:21:23.352Z,20.92
2023-05-17T06:23:52.308Z,15.13
2023-05-17T06:26:22.328Z,21.63
2023-05-17T06:28:51.055Z,19.95
2023-05-17T06:31:21.115Z,22.60
2023-05-17T06:33:49.858Z,16.13
2023-05-17T06:36:18.517Z,18.50
2023-05-17T06:38:47.180Z,18.35
2023-05-17T06:41:15.826Z,20.42
2023-05-17T06:43:46.620Z,21.02
2023-05-17T06:46:15.263Z,23.15
2023-05-17T06:48:44.061Z,20.70
2023-05-17T06:51:12.800Z,25.77
2023-05-17T06:53:41.452Z,28.80
2023-05-17T06:56:10.004Z,23.80
2023-05-17T06:58:38.592Z,22.08
2023-05-17T07:01:08.985Z,29.00
2023-05-17T07:03:37.798Z,24.83
2023-05-17T07:06:06.718Z,28.13
2023-05-17T07:08:35.385Z,30.23
2023-05-17T07:11:04.321Z,35.60
2023-05-17T07:13:33.043Z,30.45
2023-05-17T07:16:01.606Z,28.33
2023-05-17T07:18:31.735Z,28.50
2023-05-17T07:21:02.850Z,33.03
2023-05-17T07:23:34.409Z,27.23
2023-05-17T07:26:03.190Z,33.25
2023-05-17T07:28:31.922Z,34.58
2023-05-17T07:31:00.538Z,24.55
2023-05-17T07:33:29.329Z,27.95
2023-05-17T07:35:59.316Z,29.63
2023-05-17T07:38:29.177Z,25.58
2023-05-17T07:40:57.833Z,24.52
2023-05-17T07:43:26.485Z,26.70
2023-05-17T07:45:55.058Z,25.80
2023-05-17T07:48:23.831Z,23.10
2023-05-17T07:50:52.638Z,21.02
2023-05-17T07:53:22.788Z,27.42
2023-05-17T07:55:52.043Z,19.55
2023-05-17T07:58:20.884Z,16.27
2023-05-17T08:00:49.705Z,20.17
2023-05-17T08:03:18.424Z,17.40
2023-05-17T08:05:47.182Z,15.18
2023-05-17T08:08:16.290Z,17.30
2023-05-17T08:10:46.498Z,18.92
2023-05-17T08:13:15.166Z,13.88
2023-05-17T08:15:43.868Z,11.10
2023-05-17T08:18:12.724Z,10.40
2023-05-17T08:20:41.662Z,12.20
2023-05-17T08:23:10.398Z,13.02
2023-05-17T08:25:39.051Z,10.90
2023-05-17T08:28:11.277Z,13.10
2023-05-17T08:30:39.891Z,9.75
2023-05-17T08:33:11.465Z,11.93
2023-05-17T08:35:40.170Z,11.43
2023-05-17T08:38:09.254Z,11.85
2023-05-17T08:40:37.940Z,12.10
2023-05-17T08:43:07.294Z,13.23
2023-05-17T08:45:37.920Z,12.55
2023-05-17T08:48:07.343Z,14.70
2023-05-17T08:50:36.289Z,12.05
2023-05-17T08:53:05.229Z,13.65
2023-05-17T08:55:34.824Z,14.73
2023-05-17T08:58:04.301Z,15.13
2023-05-17T09:00:34.950Z,14.68
2023-05-17T09:03:06.339Z,17.50
2023-05-17T09:05:36.306Z,16.52
2023-05-17T09:08:05.598Z,11.35
2023-05-17T09:10:34.233Z,10.23
2023-05-17T09:13:02.873Z,11.50
2023-05-17T09:15:34.245Z,10.98
2023-05-17T09:18:04.417Z,6.47
2023-05-17T09:20:35.090Z,4.47
2023-05-17T09:23:04.953Z,7.38
2023-05-17T09:25:33.681Z,11.60
2023-05-17T09:28:03.839Z,6.40
2023-05-17T09:30:34.235Z,5.25
2023-05-17T09:33:08.652Z,8.07
2023-05-17T09:35:39.181Z,6.68
2023-05-17T09:38:09.383Z,4.03
2023-05-17T09:40:41.611Z,2.83
2023-05-17T09:43:11.806Z,4.88
2023-05-17T09:45:41.199Z,6.80
2023-05-17T09:48:16.215Z,8.27
2023-05-17T09:50:47.210Z,5.25
2023-05-17T09:53:29.471Z,8.27
2023-05-17T09:55:59.834Z,4.63
2023-05-17T09:58:29.373Z,4.38
2023-05-17T10:01:01.626Z,4.47
2023-05-17T10:03:34.339Z,8.88
2023-05-17T10:06:05.369Z,6.53
2023-05-17T10:08:35.374Z,4.43
2023-05-17T10:11:08.985Z,7.60
2023-05-17T10:13:45.116Z,4.82
2023-05-17T10:16:14.296Z,6.00
2023-05-17T10:18:44.937Z,7.93
2023-05-17T10:21:13.924Z,9.23
2023-05-17T10:23:44.364Z,7.70
2023-05-17T10:26:15.970Z,8.38
2023-05-17T10:28:46.213Z,8.55
2023-05-17T10:31:15.359Z,6.45
2023-05-17T10:33:48.501Z,8.50
2023-05-17T10:36:19.312Z,6.97
2023-05-17T10:38:48.836Z,9.88
2023-05-17T10:41:19.394Z,5.82
2023-05-17T10:43:49.694Z,7.50
2023-05-17T10:46:21.382Z,8.57
2023-05-17T10:48:52.515Z,12.35
2023-05-17T10:51:25.122Z,8.48
2023-05-17T10:54:09.265Z,14.35
2023-05-17T10:56:42.587Z,6.55
2023-05-17T10:59:22.809Z,6.68
2023-05-17T11:01:56.384Z,5.20
2023-05-17T11:04:28.060Z,7.32
2023-05-17T11:07:26.921Z,5.70
2023-05-17T11:09:57.045Z,4.80
2023-05-17T11:12:37.384Z,9.80
2023-05-17T11:15:10.801Z,6.25
2023-05-17T11:17:51.718Z,9.63
2023-05-17T11:20:35.041Z,6.93
2023-05-17T11:23:08.295Z,6.43
2023-05-17T11:25:38.767Z,3.50
2023-05-17T11:28:09.652Z,7.88
2023-05-17T11:30:43.581Z,6.38
2023-05-17T11:33:21.037Z,8.57
2023-05-17T11:36:06.225Z,5.10
2023-05-17T11:38:36.419Z,6.30
2023-05-17T11:43:50.804Z,9.32
2023-05-17T11:46:21.317Z,6.32
2023-05-17T11:48:53.601Z,9.90
2023-05-17T11:51:24.957Z,7.55
2023-05-17T11:53:56.801Z,8.40
2023-05-17T11:56:39.531Z,6.22
2023-05-17T11:59:12.116Z,5.18
2023-05-17T12:01:45.931Z,8.13
2023-05-17T12:04:14.747Z,5.82
2023-05-17T12:06:44.863Z,7.13
2023-05-17T12:09:17.832Z,5.68
2023-05-17T12:11:47.780Z,5.63
2023-05-17T12:14:18.315Z,7.95
2023-05-17T12:16:52.137Z,7.57
2023-05-17T12:19:22.255Z,5.13
2023-05-17T12:21:51.487Z,7.95
2023-05-17T12:24:21.536Z,6.38
2023-05-17T12:26:50.184Z,9.65
2023-05-17T12:29:23.120Z,6.95
2023-05-17T12:31:54.558Z,4.90
2023-05-17T12:34:23.608Z,3.70
2023-05-17T12:36:53.325Z,4.53
2023-05-17T12:39:24.769Z,5.63
2023-05-17T12:41:54.269Z,5.55
2023-05-17T12:44:23.261Z,4.90
2023-05-17T12:46:54.108Z,7.13
2023-05-17T12:49:23.403Z,5.70
2023-05-17T12:51:52.025Z,5.38
2023-05-17T12:54:29.604Z,5.43
2023-05-17T12:56:58.369Z,10.50
2023-05-17T12:59:29.076Z,6.18
2023-05-17T13:02:00.590Z,6.20
2023-05-17T13:04:33.394Z,8.32
2023-05-17T13:07:04.331Z,7.25
2023-05-17T13:09:36.430Z,7.30
2023-05-17T13:12:07.899Z,7.05
2023-05-17T13:14:38.817Z,6.47
2023-05-17T13:17:09.182Z,5.78
2023-05-17T13:19:40.298Z,6.97
2023-05-17T13:22:09.196Z,4.53
2023-05-17T13:24:40.734Z,5.80
2023-05-17T13:27:09.792Z,6.10
2023-05-17T13:29:40.897Z,4.75
2023-05-17T13:32:11.624Z,7.32
2023-05-17T13:34:41.651Z,3.80
2023-05-17T13:37:12.460Z,6.50
2023-05-17T13:39:43.276Z,9.70
2023-05-17T13:42:12.201Z,7.78
2023-05-17T13:44:41.116Z,7.10
2023-05-17T13:47:09.799Z,5.30
2023-05-17T13:49:38.434Z,5.07
2023-05-17T13:52:08.861Z,8.75
2023-05-17T13:54:39.128Z,4.97
2023-05-17T13:57:09.332Z,6.63
2023-05-17T13:59:38.021Z,4.93
2023-05-17T14:02:06.834Z,4.35
2023-05-17T14:04:35.980Z,6.22
2023-05-17T14:07:05.000Z,7.57
2023-05-17T14:09:34.625Z,4.97
2023-05-17T14:12:03.412Z,3.47
2023-05-17T14:14:33.417Z,7.10
2023-05-17T14:17:02.549Z,8.18
2023-05-17T14:19:31.533Z,3.83
2023-05-17T14:22:00.508Z,7.88
2023-05-17T14:24:29.165Z,7.30
2023-05-17T14:26:58.881Z,8.70
2023-05-17T14:29:27.547Z,9.95
2023-05-17T14:31:57.534Z,7.30
2023-05-17T14:34:26.276Z,8.88
2023-05-17T14:36:55.093Z,2.83
2023-05-17T14:39:23.736Z,7.60
2023-05-17T14:41:52.353Z,12.75
2023-05-17T14:44:21.134Z,8.70
2023-05-17T14:46:49.761Z,4.18
2023-05-17T14:49:19.913Z,7.82
2023-05-17T14:51:48.654Z,8.40
2023-05-17T14:54:18.093Z,19.17
2023-05-17T14:56:47.203Z,4.15
2023-05-17T14:59:16.129Z,7.18
2023-05-17T15:01:44.902Z,7.53
2023-05-17T15:04:13.748Z,6.55
2023-05-17T15:06:44.454Z,7.63
2023-05-17T15:09:14.289Z,5.75
2023-05-17T15:11:43.062Z,11.10
2023-05-17T15:14:11.923Z,8.68
2023-05-17T15:16:41.071Z,7.15
2023-05-17T15:19:09.854Z,7.57
2023-05-17T15:21:38.558Z,6.53
2023-05-17T15:24:09.784Z,6.78
2023-05-17T15:26:40.018Z,4.47
2023-05-17T15:29:08.660Z,3.53
2023-05-17T15:31:37.301Z,5.93
2023-05-17T15:34:06.153Z,5.60
2023-05-17T15:36:34.857Z,8.40
2023-05-17T15:39:03.720Z,6.82
2023-05-17T15:41:33.759Z,6.22
2023-05-17T15:44:02.441Z,5.47
2023-05-17T15:46:31.195Z,3.88
2023-05-17T15:48:59.893Z,6.30
2023-05-17T15:51:28.520Z,6.50
2023-05-17T15:53:57.304Z,5.63
2023-05-17T15:56:26.032Z,6.03
2023-05-17T15:58:56.062Z,5.15
2023-05-17T16:01:24.727Z,4.40
2023-05-17T16:03:53.342Z,6.00
2023-05-17T16:06:22.156Z,5.22
2023-05-17T16:08:51.085Z,3.35
2023-05-17T16:11:19.773Z,4.05
2023-05-17T16:13:48.342Z,8.52
2023-05-17T16:16:18.378Z,10.05
2023-05-17T16:18:47.251Z,8.32
2023-05-17T16:21:15.982Z,3.97
2023-05-17T16:23:44.591Z,5.70
2023-05-17T16:26:13.216Z,7.65
2023-05-17T16:28:41.873Z,5.65
2023-05-17T16:31:11.231Z,8.30
2023-05-17T16:33:41.511Z,8.35
2023-05-17T16:36:12.373Z,6.57
2023-05-17T16:38:41.085Z,5.90
2023-05-17T16:41:09.824Z,8.82
2023-05-17T16:43:38.461Z,7.47
2023-05-17T16:46:07.101Z,8.82
2023-05-17T16:48:36.183Z,5.60
2023-05-17T16:51:06.670Z,6.93
2023-05-17T16:53:35.334Z,7.03
2023-05-17T16:56:04.005Z,10.15
2023-05-17T16:58:32.595Z,5.82
2023-05-17T17:01:01.445Z,5.45
2023-05-17T17:03:30.237Z,3.72
2023-05-17T17:05:58.912Z,6.45
2023-05-17T17:08:28.984Z,6.72
2023-05-17T17:10:57.771Z,7.00
2023-05-17T17:13:26.624Z,6.43
2023-05-17T17:15:55.339Z,6.60
2023-05-17T17:18:23.990Z,4.25
2023-05-17T17:20:52.733Z,4.68
2023-05-17T17:23:21.910Z,7.38
2023-05-17T17:25:51.854Z,5.25
2023-05-17T17:28:20.514Z,5.45
2023-05-17T17:30:49.151Z,9.70
2023-05-17T17:33:17.819Z,4.13
2023-05-17T17:35:46.516Z,6.28
2023-05-17T17:38:15.147Z,5.97
2023-05-17T17:40:43.885Z,5.78
2023-05-17T17:43:14.138Z,5.85
2023-05-17T17:45:42.772Z,6.55
2023-05-17T17:48:11.551Z,7.22
2023-05-17T17:50:40.255Z,4.82
2023-05-17T17:53:10.664Z,9.40
2023-05-17T17:55:39.360Z,5.40
2023-05-17T17:58:07.937Z,5.20
2023-05-17T18:00:37.898Z,5.10
2023-05-17T18:03:06.724Z,5.65
2023-05-17T18:05:35.470Z,4.63
2023-05-17T18:08:04.480Z,6.05
2023-05-17T18:10:33.322Z,9.73
2023-05-17T18:13:01.869Z,7.43
2023-05-17T18:15:30.584Z,10.23
2023-05-17T18:18:00.596Z,5.63
2023-05-17T18:20:29.366Z,9.50
2023-05-17T18:22:58.125Z,6.50
2023-05-17T18:25:26.736Z,9.30
2023-05-17T18:27:55.368Z,4.20
2023-05-17T18:30:24.822Z,7.80
2023-05-17T18:32:53.532Z,6.30
2023-05-17T18:35:23.608Z,8.52
2023-05-17T18:37:52.198Z,9.68
2023-05-17T18:40:20.984Z,11.88
2023-05-17T18:42:49.573Z,5.75
2023-05-17T18:45:18.369Z,7.97
2023-05-17T18:47:47.054Z,5.47
2023-05-17T18:50:15.757Z,5.05
2023-05-17T18:52:45.856Z,4.10
2023-05-17T18:55:14.857Z,7.00
2023-05-17T18:57:43.481Z,7.40
2023-05-17T19:00:13.088Z,5.35
2023-05-17T19:02:45.984Z,8.98
2023-05-17T19:05:19.424Z,5.70
2023-05-17T19:07:57.591Z,4.30
2023-05-17T19:10:26.516Z,8.93
2023-05-17T19:12:55.158Z,7.43
2023-05-17T19:15:23.891Z,6.47
2023-05-17T19:17:52.580Z,6.35
2023-05-17T19:20:21.421Z,8.50
2023-05-17T19:22:49.998Z,9.95
2023-05-17T19:25:21.137Z,6.53
2023-05-17T19:27:49.886Z,7.45
2023-05-17T19:30:18.509Z,15.85
2023-05-17T19:32:47.161Z,9.18
2023-05-17T19:35:15.766Z,6.97
2023-05-17T19:37:44.383Z,4.80
2023-05-17T19:40:14.836Z,6.15
2023-05-17T19:42:44.789Z,7.72
2023-05-17T19:45:14.465Z,8.13
2023-05-17T19:47:43.862Z,7.55
2023-05-17T19:50:12.888Z,7.85
2023-05-17T19:52:41.630Z,13.63
2023-05-17T19:55:10.355Z,8.32
2023-05-17T19:57:38.936Z,7.60
2023-05-17T20:00:10.859Z,7.30
2023-05-17T20:02:39.571Z,6.93
2023-05-17T20:05:09.009Z,4.78
2023-05-17T20:07:37.957Z,6.28
2023-05-17T20:10:06.947Z,5.82
2023-05-17T20:12:35.635Z,6.60
2023-05-17T20:15:06.002Z,9.70
2023-05-17T20:17:36.119Z,9.25
2023-05-17T20:20:06.166Z,5.72
2023-05-17T20:22:36.166Z,8.18
2023-05-17T20:25:05.087Z,5.40
2023-05-17T20:27:33.761Z,5.28
2023-05-17T20:30:02.472Z,10.05
2023-05-17T20:32:35.266Z,9.82
2023-05-17T20:35:03.872Z,9.13
2023-05-17T20:37:32.433Z,5.40
2023-05-17T20:40:00.981Z,10.30
2023-05-17T20:42:31.170Z,9.60
2023-05-17T20:44:59.738Z,6.13
2023-05-17T20:47:28.997Z,8.55
2023-05-17T20:49:59.777Z,8.95
2023-05-17T20:52:38.782Z,9.90
2023-05-17T20:55:10.366Z,10.57
2023-05-17T20:57:39.079Z,5.93
2023-05-17T21:00:11.496Z,7.07
2023-05-17T21:02:40.345Z,8.13
2023-05-17T21:05:10.937Z,4.65
2023-05-17T21:07:42.030Z,9.15
2023-05-17T21:10:10.971Z,4.53
2023-05-17T21:12:39.709Z,7.80
2023-05-17T21:15:16.690Z,7.13
2023-05-17T21:17:46.112Z,7.13
2023-05-17T21:20:16.193Z,9.80
2023-05-17T21:22:45.900Z,7.45
2023-05-17T21:25:14.520Z,7.25
2023-05-17T21:27:43.274Z,7.68
2023-05-17T21:30:12.493Z,7.70
2023-05-17T21:32:41.111Z,7.15
2023-05-17T21:35:09.924Z,7.90
2023-05-17T21:37:40.203Z,8.50
2023-05-17T21:40:10.312Z,9.60
2023-05-17T21:42:39.147Z,9.57
2023-05-17T21:45:08.901Z,7.07
2023-05-17T21:47:37.666Z,7.13
2023-05-17T21:50:07.718Z,9.23
2023-05-17T21:52:36.538Z,7.53
2023-05-17T21:55:08.387Z,8.07
2023-05-17T21:57:37.288Z,6.28
2023-05-17T22:00:07.871Z,8.82
2023-05-17T22:02:36.869Z,8.38
2023-05-17T22:05:06.080Z,7.50
2023-05-17T22:07:34.722Z,8.13
2023-05-17T22:10:04.026Z,6.13
2023-05-17T22:12:36.132Z,7.32
2023-05-17T22:15:05.288Z,6.15
2023-05-17T22:17:43.136Z,4.75
2023-05-17T22:20:23.553Z,7.75
2023-05-17T22:22:52.478Z,8.80
2023-05-17T22:25:21.153Z,9.32
2023-05-17T22:27:51.069Z,8.52
2023-05-17T22:30:19.837Z,12.23
2023-05-17T22:32:48.585Z,10.30
2023-05-17T22:35:17.202Z,7.03
2023-05-17T22:37:45.866Z,9.38
2023-05-17T22:40:14.743Z,6.80
2023-05-17T22:42:44.859Z,5.78
2023-05-17T22:45:15.377Z,5.85
2023-05-17T22:47:44.019Z,8.32
2023-05-17T22:50:14.446Z,10.15
2023-05-17T22:52:43.082Z,7.30
2023-05-17T22:55:11.868Z,4.45
2023-05-17T22:57:40.440Z,5.53
2023-05-17T23:00:11.248Z,6.25
2023-05-17T23:02:41.331Z,10.82
2023-05-17T23:05:11.242Z,9.65
2023-05-17T23:07:41.424Z,7.22
2023-05-17T23:10:11.592Z,5.63
2023-05-17T23:12:40.371Z,8.95
2023-05-17T23:15:10.566Z,8.82
2023-05-17T23:17:39.796Z,9.02
2023-05-17T23:20:12.056Z,4.07
2023-05-17T23:22:41.046Z,4.82
2023-05-17T23:25:10.529Z,5.97
2023-05-17T23:27:39.120Z,9.25
2023-05-17T23:30:08.953Z,8.25
2023-05-17T23:32:37.577Z,7.78
2023-05-17T23:35:06.881Z,8.07
2023-05-17T23:37:37.591Z,4.45
2023-05-17T23:40:09.408Z,6.50
2023-05-17T23:42:38.272Z,5.60
2023-05-17T23:45:09.313Z,8.23
2023-05-17T23:47:40.665Z,5.18
2023-05-17T23:50:10.790Z,5.30
2023-05-17T23:52:40.850Z,6.50
2023-05-17T23:55:10.239Z,6.15
2023-05-17T23:57:40.050Z,5.00
